createdAt,value
2023-05-31T00:00:28.065Z,3.97
2023-05-31T00:03:15.240Z,3.80
2023-05-31T00:05:42.829Z,3.67
2023-05-31T00:08:09.911Z,4.03
2023-05-31T00:10:37.349Z,4.00
2023-05-31T00:13:04.588Z,4.03
2023-05-31T00:15:32.511Z,3.55
2023-05-31T00:17:59.640Z,3.70
2023-05-31T00:20:27.166Z,3.90
2023-05-31T00:22:54.316Z,3.70
2023-05-31T00:25:21.744Z,3.40
2023-05-31T00:27:48.801Z,3.95
2023-05-31T00:30:16.435Z,4.00
2023-05-31T00:32:43.723Z,3.85
2023-05-31T00:35:11.160Z,3.90
2023-05-31T00:37:39.021Z,3.72
2023-05-31T00:40:07.437Z,3.70
2023-05-31T00:42:34.839Z,3.60
2023-05-31T00:45:02.611Z,4.10
2023-05-31T00:47:30.205Z,4.35
2023-05-31T00:49:57.943Z,4.00
2023-05-31T00:52:27.248Z,4.05
2023-05-31T00:54:54.845Z,3.80
2023-05-31T00:57:22.087Z,3.75
2023-05-31T00:59:49.851Z,3.88
2023-05-31T01:02:18.726Z,3.60
2023-05-31T01:04:46.642Z,3.80
2023-05-31T01:07:13.733Z,3.70
2023-05-31T01:09:44.097Z,3.67
2023-05-31T01:12:42.474Z,3.88
2023-05-31T01:15:18.804Z,3.45
2023-05-31T01:18:10.732Z,3.40
2023-05-31T01:20:41.066Z,3.50
2023-05-31T01:23:45.741Z,4.15
2023-05-31T01:26:31.526Z,3.65
2023-05-31T01:29:02.679Z,3.40
2023-05-31T01:31:32.626Z,3.92
2023-05-31T01:34:00.190Z,3.73
2023-05-31T01:36:27.636Z,3.47
2023-05-31T01:38:54.650Z,3.45
2023-05-31T01:41:24.520Z,3.30
2023-05-31T01:43:52.195Z,3.78
2023-05-31T01:46:20.107Z,3.60
2023-05-31T01:48:49.186Z,3.50
2023-05-31T01:51:18.384Z,3.80
2023-05-31T01:53:45.533Z,3.70
2023-05-31T01:56:14.090Z,3.50
2023-05-31T01:58:48.394Z,3.07
2023-05-31T02:01:17.805Z,3.67
2023-05-31T02:03:45.102Z,3.70
2023-05-31T02:06:15.829Z,3.30
2023-05-31T02:08:42.848Z,3.20
2023-05-31T02:11:10.360Z,3.43
2023-05-31T02:13:37.458Z,3.45
2023-05-31T02:16:05.114Z,3.20
2023-05-31T02:18:32.146Z,3.20
2023-05-31T02:20:59.944Z,3.10
2023-05-31T02:23:27.208Z,3.10
2023-05-31T02:25:54.882Z,3.03
2023-05-31T02:28:22.199Z,3.13
2023-05-31T02:30:59.146Z,3.20
2023-05-31T02:33:26.478Z,3.30
2023-05-31T02:35:54.375Z,3.23
2023-05-31T02:38:21.997Z,2.80
2023-05-31T02:40:49.609Z,3.28
2023-05-31T02:43:16.691Z,2.90
2023-05-31T02:45:44.435Z,3.10
2023-05-31T02:48:12.582Z,3.10
2023-05-31T02:50:40.410Z,2.80
2023-05-31T02:53:20.943Z,3.22
2023-05-31T02:55:54.376Z,2.47
2023-05-31T02:58:24.486Z,2.83
2023-05-31T03:01:15.109Z,2.57
2023-05-31T03:04:08.350Z,2.67
2023-05-31T03:06:37.778Z,2.80
2023-05-31T03:09:04.987Z,2.35
2023-05-31T03:11:34.798Z,2.70
2023-05-31T03:14:01.833Z,2.70
2023-05-31T03:16:44.606Z,2.40
2023-05-31T03:19:15.506Z,2.50
2023-05-31T03:21:45.481Z,2.50
2023-05-31T03:24:12.856Z,2.60
2023-05-31T03:26:40.218Z,2.40
2023-05-31T03:29:08.083Z,2.70
2023-05-31T03:31:35.886Z,2.33
2023-05-31T03:34:03.149Z,2.88
2023-05-31T03:36:30.566Z,2.70
2023-05-31T03:39:00.688Z,2.47
2023-05-31T03:41:28.192Z,2.30
2023-05-31T03:43:55.190Z,2.63
2023-05-31T03:46:25.749Z,2.58
2023-05-31T03:48:55.576Z,2.53
2023-05-31T03:51:24.348Z,2.27
2023-05-31T03:53:51.458Z,2.60
2023-05-31T03:56:19.120Z,2.70
2023-05-31T03:58:46.379Z,2.40
2023-05-31T04:01:15.405Z,2.72
2023-05-31T04:03:42.522Z,2.47
2023-05-31T04:06:10.286Z,2.40
2023-05-31T04:08:37.623Z,2.40
2023-05-31T04:11:05.226Z,2.00
2023-05-31T04:13:32.682Z,2.30
2023-05-31T04:16:00.453Z,2.20
2023-05-31T04:18:27.602Z,2.47
2023-05-31T04:20:55.959Z,2.45
2023-05-31T04:23:23.094Z,2.30
2023-05-31T04:25:51.717Z,2.67
2023-05-31T04:28:20.368Z,2.37
2023-05-31T04:30:48.144Z,2.22
2023-05-31T04:33:18.825Z,2.10
2023-05-31T04:35:46.841Z,2.30
2023-05-31T04:38:15.499Z,2.40
2023-05-31T04:40:43.824Z,2.30
2023-05-31T04:43:10.881Z,2.08
2023-05-31T04:45:39.215Z,2.50
2023-05-31T04:48:07.144Z,2.50
2023-05-31T04:50:34.515Z,2.67
2023-05-31T04:53:01.910Z,2.30
2023-05-31T04:55:30.154Z,2.78
2023-05-31T04:58:02.281Z,2.30
2023-05-31T05:00:29.718Z,2.30
2023-05-31T05:03:14.214Z,2.20
2023-05-31T05:05:43.769Z,2.20
2023-05-31T05:08:10.704Z,2.25
2023-05-31T05:10:40.229Z,2.30
2023-05-31T05:13:07.633Z,2.30
2023-05-31T05:15:36.648Z,2.40
2023-05-31T05:18:03.893Z,2.33
2023-05-31T05:20:31.451Z,2.30
2023-05-31T05:22:58.769Z,2.45
2023-05-31T05:25:28.151Z,2.22
2023-05-31T05:27:56.279Z,2.60
2023-05-31T05:30:25.270Z,2.60
2023-05-31T05:32:52.211Z,2.35
2023-05-31T05:35:20.050Z,2.30
2023-05-31T05:37:48.083Z,2.20
2023-05-31T05:40:16.196Z,2.40
2023-05-31T05:42:43.461Z,2.42
2023-05-31T05:45:11.340Z,2.70
2023-05-31T05:47:39.601Z,2.72
2023-05-31T05:50:07.269Z,2.40
2023-05-31T05:52:34.297Z,2.30
2023-05-31T05:55:01.639Z,2.45
2023-05-31T05:57:29.485Z,2.50
2023-05-31T06:00:11.563Z,2.58
2023-05-31T06:02:40.679Z,2.45
2023-05-31T06:05:09.186Z,2.40
2023-05-31T06:07:36.180Z,2.70
2023-05-31T06:10:04.476Z,2.20
2023-05-31T06:12:31.913Z,2.60
2023-05-31T06:15:01.043Z,2.60
2023-05-31T06:17:28.668Z,2.72
2023-05-31T06:19:56.043Z,2.63
2023-05-31T06:22:23.093Z,2.83
2023-05-31T06:24:51.553Z,2.60
2023-05-31T06:27:18.461Z,2.50
2023-05-31T06:29:46.366Z,2.83
2023-05-31T06:32:22.292Z,2.40
2023-05-31T06:34:51.435Z,2.80
2023-05-31T06:37:19.824Z,2.75
2023-05-31T06:39:47.419Z,2.40
2023-05-31T06:42:15.107Z,2.50
2023-05-31T06:44:56.133Z,2.60
2023-05-31T06:47:47.482Z,2.50
2023-05-31T06:50:37.765Z,2.85
2023-05-31T06:53:10.495Z,2.40
2023-05-31T06:55:42.929Z,2.63
2023-05-31T06:58:15.234Z,2.53
2023-05-31T07:00:42.640Z,2.67
2023-05-31T07:03:09.715Z,2.70
2023-05-31T07:05:38.145Z,2.75
2023-05-31T07:08:05.971Z,3.20
2023-05-31T07:10:39.091Z,2.80
2023-05-31T07:13:06.457Z,2.43
2023-05-31T07:15:34.906Z,2.85
2023-05-31T07:18:01.905Z,2.60
2023-05-31T07:20:29.268Z,2.92
2023-05-31T07:22:58.722Z,2.67
2023-05-31T07:25:26.006Z,2.90
2023-05-31T07:27:52.878Z,2.90
2023-05-31T07:30:21.748Z,3.00
2023-05-31T07:32:48.978Z,2.67
2023-05-31T07:35:16.448Z,2.88
2023-05-31T07:37:43.528Z,2.77
2023-05-31T07:40:10.980Z,2.83
2023-05-31T07:42:38.586Z,2.80
2023-05-31T07:45:06.206Z,2.70
2023-05-31T07:47:33.877Z,2.83
2023-05-31T07:50:01.178Z,2.90
2023-05-31T07:52:28.402Z,2.92
2023-05-31T07:54:55.615Z,3.28
2023-05-31T07:57:23.816Z,3.10
2023-05-31T07:59:52.379Z,3.53
2023-05-31T08:02:19.590Z,2.77
2023-05-31T08:04:46.884Z,3.00
2023-05-31T08:07:13.959Z,3.20
2023-05-31T08:09:41.216Z,3.00
2023-05-31T08:12:08.850Z,2.70
2023-05-31T08:14:36.071Z,3.10
2023-05-31T08:17:03.800Z,2.97
2023-05-31T08:19:31.065Z,3.30
2023-05-31T08:21:58.286Z,2.80
2023-05-31T08:24:25.494Z,3.42
2023-05-31T08:26:52.465Z,2.90
2023-05-31T08:29:19.826Z,2.80
2023-05-31T08:31:46.732Z,2.85
2023-05-31T08:34:14.179Z,2.60
2023-05-31T08:36:45.645Z,2.95
2023-05-31T08:39:12.997Z,2.87
2023-05-31T08:41:59.697Z,3.10
2023-05-31T08:44:28.132Z,2.97
2023-05-31T08:46:59.973Z,2.90
2023-05-31T08:49:28.207Z,3.50
2023-05-31T08:51:56.183Z,3.30
2023-05-31T08:54:25.348Z,3.10
2023-05-31T08:56:53.052Z,3.40
2023-05-31T08:59:20.897Z,3.30
2023-05-31T09:01:48.905Z,3.38
2023-05-31T09:04:17.269Z,3.20
2023-05-31T09:06:44.839Z,3.15
2023-05-31T09:09:12.081Z,2.70
2023-05-31T09:11:40.991Z,3.33
2023-05-31T09:14:10.038Z,3.00
2023-05-31T09:16:37.709Z,3.70
2023-05-31T09:19:06.654Z,3.00
2023-05-31T09:21:45.922Z,3.15
2023-05-31T09:24:17.324Z,3.25
2023-05-31T09:26:51.590Z,3.05
2023-05-31T09:29:20.844Z,3.23
2023-05-31T09:31:47.872Z,2.95
2023-05-31T09:34:29.178Z,3.42
2023-05-31T09:37:00.443Z,3.03
2023-05-31T09:39:28.758Z,3.05
2023-05-31T09:41:58.727Z,3.23
2023-05-31T09:44:29.606Z,3.00
2023-05-31T09:46:56.826Z,3.30
2023-05-31T09:49:25.974Z,3.13
2023-05-31T09:51:53.691Z,3.10
2023-05-31T09:54:28.014Z,2.83
2023-05-31T09:56:55.920Z,3.13
2023-05-31T09:59:23.572Z,3.35
2023-05-31T10:01:51.511Z,3.50
2023-05-31T10:04:20.260Z,3.13
2023-05-31T10:06:48.950Z,2.90
2023-05-31T10:09:16.907Z,3.30
2023-05-31T10:11:51.543Z,3.40
2023-05-31T10:14:25.225Z,2.95
2023-05-31T10:16:55.321Z,3.53
2023-05-31T10:19:32.080Z,2.80
2023-05-31T10:22:01.099Z,3.25
2023-05-31T10:24:34.374Z,3.45
2023-05-31T10:27:07.165Z,3.45
2023-05-31T10:29:42.332Z,3.00
2023-05-31T10:32:15.109Z,3.27
2023-05-31T10:34:43.111Z,3.50
2023-05-31T10:37:11.300Z,3.20
2023-05-31T10:39:49.148Z,3.00
2023-05-31T10:42:18.923Z,3.10
2023-05-31T10:45:11.936Z,2.90
2023-05-31T10:47:45.970Z,3.75
2023-05-31T10:50:21.710Z,3.30
2023-05-31T10:52:53.270Z,3.40
2023-05-31T10:55:24.518Z,3.50
2023-05-31T10:57:57.015Z,3.30
2023-05-31T11:00:25.624Z,3.30
2023-05-31T11:02:56.087Z,3.45
2023-05-31T11:05:28.768Z,3.17
2023-05-31T11:07:56.018Z,3.40
2023-05-31T11:10:33.288Z,3.30
2023-05-31T11:13:05.118Z,3.00
2023-05-31T11:15:50.115Z,3.13
2023-05-31T11:18:23.874Z,3.13
2023-05-31T11:20:51.344Z,3.10
2023-05-31T11:23:18.365Z,3.00
2023-05-31T11:26:06.533Z,3.17
2023-05-31T11:28:51.828Z,3.88
2023-05-31T11:31:58.444Z,3.10
2023-05-31T11:34:28.827Z,3.10
2023-05-31T11:37:01.271Z,2.80
2023-05-31T11:39:28.684Z,3.45
2023-05-31T11:41:56.679Z,3.30
2023-05-31T11:44:32.867Z,3.30
2023-05-31T11:47:07.274Z,3.15
2023-05-31T11:49:34.910Z,3.10
2023-05-31T11:52:04.364Z,2.90
2023-05-31T11:54:34.022Z,2.88
2023-05-31T11:57:06.015Z,3.22
2023-05-31T11:59:33.464Z,3.00
2023-05-31T12:02:02.098Z,3.10
2023-05-31T12:04:42.573Z,3.15
2023-05-31T12:07:23.572Z,2.92
2023-05-31T12:09:50.949Z,2.70
2023-05-31T12:12:18.443Z,2.90
2023-05-31T12:14:52.456Z,3.07
2023-05-31T12:17:19.696Z,2.83
2023-05-31T12:19:49.251Z,3.13
2023-05-31T12:22:16.556Z,3.28
2023-05-31T12:24:51.489Z,3.20
2023-05-31T12:27:41.006Z,2.70
2023-05-31T12:30:17.477Z,3.00
2023-05-31T12:32:46.470Z,3.20
2023-05-31T12:35:14.205Z,3.20
2023-05-31T12:37:41.839Z,2.90
2023-05-31T12:40:13.906Z,3.27
2023-05-31T12:42:42.713Z,2.58
2023-05-31T12:45:10.448Z,3.20
2023-05-31T12:47:38.325Z,3.00
2023-05-31T12:50:08.352Z,3.08
2023-05-31T12:52:37.356Z,2.97
2023-05-31T12:55:05.666Z,2.88
2023-05-31T12:57:33.830Z,2.97
2023-05-31T13:00:09.754Z,2.78
2023-05-31T13:02:38.603Z,3.00
2023-05-31T13:05:06.712Z,2.80
2023-05-31T13:07:34.922Z,2.83
2023-05-31T13:10:05.986Z,3.08
2023-05-31T13:12:36.097Z,2.88
2023-05-31T13:15:03.475Z,2.63
2023-05-31T13:17:30.898Z,2.43
2023-05-31T13:20:11.205Z,3.00
2023-05-31T13:22:40.545Z,2.70
2023-05-31T13:25:08.995Z,2.80
2023-05-31T13:27:36.386Z,3.00
2023-05-31T13:30:04.066Z,2.80
2023-05-31T13:32:32.059Z,2.90
2023-05-31T13:35:01.361Z,2.90
2023-05-31T13:37:29.313Z,3.00
2023-05-31T13:39:59.172Z,2.70
2023-05-31T13:42:26.561Z,2.77
2023-05-31T13:44:53.475Z,2.50
2023-05-31T13:47:21.479Z,2.60
2023-05-31T13:49:49.601Z,2.70
2023-05-31T13:52:17.357Z,2.70
2023-05-31T13:54:44.331Z,2.70
2023-05-31T13:57:11.801Z,2.70
2023-05-31T13:59:39.318Z,2.85
2023-05-31T14:02:07.164Z,2.63
2023-05-31T14:04:34.963Z,2.72
2023-05-31T14:07:03.739Z,2.60
2023-05-31T14:09:30.659Z,2.70
2023-05-31T14:11:59.656Z,2.80
2023-05-31T14:14:27.898Z,2.70
2023-05-31T14:16:55.246Z,2.60
2023-05-31T14:19:22.462Z,2.47
2023-05-31T14:21:49.745Z,2.80
2023-05-31T14:24:17.205Z,2.33
2023-05-31T14:26:45.117Z,2.72
2023-05-31T14:29:12.077Z,2.60
2023-05-31T14:31:39.340Z,2.50
2023-05-31T14:34:06.283Z,2.47
2023-05-31T14:36:34.048Z,2.72
2023-05-31T14:39:01.539Z,2.70
2023-05-31T14:41:28.842Z,2.58
2023-05-31T14:43:56.039Z,2.63
2023-05-31T14:46:23.592Z,2.60
2023-05-31T14:48:50.551Z,2.65
2023-05-31T14:51:17.847Z,2.63
2023-05-31T14:53:44.724Z,2.63
2023-05-31T14:58:43.859Z,2.22
2023-05-31T15:01:11.335Z,2.30
2023-05-31T15:03:38.357Z,2.40
2023-05-31T15:06:05.878Z,2.67
2023-05-31T15:08:34.992Z,2.23
2023-05-31T15:11:03.010Z,2.58
2023-05-31T15:13:30.263Z,2.67
2023-05-31T15:15:57.560Z,2.30
2023-05-31T15:18:24.510Z,2.40
2023-05-31T15:20:52.001Z,2.37
2023-05-31T15:23:19.176Z,2.40
2023-05-31T15:25:46.473Z,2.40
2023-05-31T15:28:13.912Z,2.53
2023-05-31T15:30:41.217Z,2.50
2023-05-31T15:33:08.315Z,2.33
2023-05-31T15:35:35.690Z,2.20
2023-05-31T15:38:03.212Z,2.60
2023-05-31T15:40:30.519Z,2.40
2023-05-31T15:42:57.416Z,2.30
2023-05-31T15:45:24.689Z,2.27
2023-05-31T15:47:51.717Z,2.40
2023-05-31T15:50:20.134Z,2.03
2023-05-31T15:52:47.176Z,2.50
2023-05-31T15:55:14.452Z,2.35
2023-05-31T15:57:41.436Z,2.37
2023-05-31T16:00:09.413Z,2.20
2023-05-31T16:02:39.508Z,2.30
2023-05-31T16:05:11.977Z,2.83
2023-05-31T16:07:38.963Z,2.40
2023-05-31T16:10:06.552Z,2.60
2023-05-31T16:12:33.718Z,2.35
2023-05-31T16:15:01.963Z,2.20
2023-05-31T16:17:28.965Z,2.30
2023-05-31T16:19:56.846Z,2.50
2023-05-31T16:22:23.783Z,2.40
2023-05-31T16:24:51.292Z,2.20
2023-05-31T16:27:18.960Z,2.50
2023-05-31T16:29:46.399Z,2.30
2023-05-31T16:32:13.696Z,2.20
2023-05-31T16:34:41.160Z,2.60
2023-05-31T16:37:09.880Z,2.03
2023-05-31T16:39:37.408Z,2.20
2023-05-31T16:42:07.988Z,2.38
2023-05-31T16:44:36.258Z,2.25
2023-05-31T16:47:03.904Z,2.40
2023-05-31T16:49:31.287Z,2.35
2023-05-31T16:51:58.298Z,2.30
2023-05-31T16:54:25.578Z,2.40
2023-05-31T16:56:52.650Z,2.50
2023-05-31T16:59:19.903Z,2.30
2023-05-31T17:01:46.859Z,1.90
2023-05-31T17:04:14.192Z,2.25
2023-05-31T17:06:41.244Z,2.22
2023-05-31T17:09:08.472Z,2.30
2023-05-31T17:11:37.959Z,2.10
2023-05-31T17:14:05.172Z,2.40
2023-05-31T17:16:32.415Z,2.15
2023-05-31T17:19:00.189Z,2.30
2023-05-31T17:21:27.425Z,2.15
2023-05-31T17:23:54.688Z,2.30
2023-05-31T17:26:23.688Z,2.28
2023-05-31T17:28:50.915Z,2.90
2023-05-31T17:31:18.218Z,2.22
2023-05-31T17:33:45.478Z,2.40
2023-05-31T17:36:13.044Z,1.98
2023-05-31T17:38:40.463Z,2.63
2023-05-31T17:41:07.385Z,2.23
2023-05-31T17:43:36.426Z,2.33
2023-05-31T17:46:04.218Z,2.30
2023-05-31T17:48:31.608Z,2.25
2023-05-31T17:50:58.860Z,2.08
2023-05-31T17:53:26.504Z,2.43
2023-05-31T17:55:53.405Z,2.20
2023-05-31T17:58:20.726Z,2.17
2023-05-31T18:00:47.632Z,2.50
2023-05-31T18:03:15.177Z,2.67
2023-05-31T18:05:42.378Z,2.00
2023-05-31T18:08:09.613Z,2.55
2023-05-31T18:10:37.251Z,2.53
2023-05-31T18:13:04.838Z,2.50
2023-05-31T18:15:31.721Z,2.60
2023-05-31T18:17:58.985Z,2.40
2023-05-31T18:20:25.948Z,2.50
2023-05-31T18:22:53.174Z,2.47
2023-05-31T18:25:22.242Z,2.75
2023-05-31T18:27:49.440Z,2.78
2023-05-31T18:30:16.353Z,2.20
2023-05-31T18:32:44.302Z,2.30
2023-05-31T18:35:11.410Z,2.40
2023-05-31T18:37:39.187Z,2.20
2023-05-31T18:40:07.006Z,2.20
2023-05-31T18:42:34.480Z,2.70
2023-05-31T18:45:01.598Z,2.60
2023-05-31T18:47:29.867Z,2.55
2023-05-31T18:49:56.824Z,2.47
2023-05-31T18:52:24.034Z,2.67
2023-05-31T18:54:50.969Z,2.80
2023-05-31T18:57:19.051Z,2.72
2023-05-31T18:59:45.957Z,2.60
2023-05-31T19:02:13.239Z,2.65
2023-05-31T19:04:40.261Z,2.80
2023-05-31T19:07:07.606Z,2.77
2023-05-31T19:09:34.956Z,2.60
2023-05-31T19:12:02.203Z,3.20
2023-05-31T19:14:29.233Z,2.95
2023-05-31T19:16:56.650Z,3.00
2023-05-31T19:19:23.582Z,2.80
2023-05-31T19:21:50.996Z,2.78
2023-05-31T19:24:17.951Z,3.40
2023-05-31T19:26:45.219Z,2.90
2023-05-31T19:29:12.368Z,3.05
2023-05-31T19:31:39.870Z,3.07
2023-05-31T19:34:07.010Z,3.35
2023-05-31T19:36:34.552Z,3.08
2023-05-31T19:39:03.141Z,2.92
2023-05-31T19:41:30.541Z,3.05
2023-05-31T19:43:57.568Z,3.30
2023-05-31T19:46:25.893Z,3.10
2023-05-31T19:48:53.432Z,3.05
2023-05-31T19:51:20.985Z,3.22
2023-05-31T19:53:47.978Z,3.70
2023-05-31T19:56:15.531Z,3.60
2023-05-31T19:58:42.586Z,3.70
2023-05-31T20:01:10.980Z,3.58
2023-05-31T20:03:38.387Z,3.25
2023-05-31T20:06:06.368Z,3.60
2023-05-31T20:08:34.108Z,3.50
2023-05-31T20:11:01.359Z,3.38
2023-05-31T20:13:28.362Z,3.60
2023-05-31T20:15:55.838Z,3.47
2023-05-31T20:18:24.120Z,3.80
2023-05-31T20:20:52.131Z,3.20
2023-05-31T20:23:19.224Z,4.38
2023-05-31T20:25:46.867Z,3.50
2023-05-31T20:28:14.233Z,4.22
2023-05-31T20:30:41.486Z,3.80
2023-05-31T20:33:08.606Z,3.50
2023-05-31T20:35:35.843Z,3.85
2023-05-31T20:38:03.102Z,3.70
2023-05-31T20:40:30.684Z,3.72
2023-05-31T20:42:57.998Z,3.70
2023-05-31T20:45:25.242Z,4.00
2023-05-31T20:47:52.290Z,3.90
2023-05-31T20:50:20.723Z,3.90
2023-05-31T20:52:48.269Z,4.15
2023-05-31T20:55:16.448Z,3.42
2023-05-31T20:57:44.000Z,3.40
2023-05-31T21:00:12.135Z,3.80
2023-05-31T21:02:39.172Z,3.88
2023-05-31T21:05:06.760Z,4.15
2023-05-31T21:07:33.733Z,4.07
2023-05-31T21:10:01.942Z,3.73
2023-05-31T21:12:29.112Z,3.90
2023-05-31T21:14:56.446Z,3.88
2023-05-31T21:17:24.194Z,4.35
2023-05-31T21:19:51.583Z,4.30
2023-05-31T21:22:18.556Z,3.93
2023-05-31T21:24:45.833Z,4.07
2023-05-31T21:27:12.735Z,4.10
2023-05-31T21:29:40.486Z,4.20
2023-05-31T21:32:08.303Z,3.90
2023-05-31T21:34:35.510Z,3.63
2023-05-31T21:37:02.500Z,3.90
2023-05-31T21:39:29.802Z,3.90
2023-05-31T21:41:56.687Z,4.00
2023-05-31T21:44:23.907Z,4.00
2023-05-31T21:46:50.849Z,3.20
2023-05-31T21:49:18.077Z,3.45
2023-05-31T21:51:45.054Z,3.72
2023-05-31T21:54:12.421Z,4.00
2023-05-31T21:56:39.320Z,4.53
2023-05-31T21:59:06.593Z,3.97
2023-05-31T22:01:33.584Z,4.13
2023-05-31T22:04:01.145Z,4.10
2023-05-31T22:06:28.726Z,4.00
2023-05-31T22:08:57.509Z,3.97
2023-05-31T22:11:24.434Z,4.17
2023-05-31T22:13:53.696Z,3.90
2023-05-31T22:16:23.747Z,3.80
2023-05-31T22:18:53.003Z,4.00
2023-05-31T22:21:22.819Z,3.83
2023-05-31T22:23:54.313Z,4.13
2023-05-31T22:26:21.920Z,3.60
2023-05-31T22:28:51.141Z,3.60
2023-05-31T22:31:19.105Z,3.63
2023-05-31T22:33:48.587Z,3.60
2023-05-31T22:36:16.883Z,3.72
2023-05-31T22:38:44.580Z,4.00
2023-05-31T22:41:12.026Z,4.00
2023-05-31T22:43:39.532Z,3.88
2023-05-31T22:46:06.555Z,3.58
2023-05-31T22:48:37.552Z,3.67
2023-05-31T22:51:07.532Z,3.90
2023-05-31T22:53:34.803Z,4.43
2023-05-31T22:56:02.010Z,4.05
2023-05-31T22:58:28.926Z,3.97
2023-05-31T23:00:56.301Z,4.20
2023-05-31T23:03:23.291Z,3.60
2023-05-31T23:05:52.498Z,4.30
2023-05-31T23:08:25.050Z,3.92
2023-05-31T23:10:59.027Z,4.28
2023-05-31T23:13:26.909Z,4.38
2023-05-31T23:15:59.854Z,3.73
2023-05-31T23:18:27.198Z,4.22
2023-05-31T23:20:56.332Z,3.88
2023-05-31T23:23:24.116Z,4.30
2023-05-31T23:25:52.120Z,4.00
2023-05-31T23:28:19.128Z,3.90
2023-05-31T23:30:46.481Z,4.35
2023-05-31T23:33:13.569Z,4.18
2023-05-31T23:35:40.918Z,3.85
2023-05-31T23:38:08.120Z,4.00
2023-05-31T23:40:35.553Z,4.47
2023-05-31T23:43:02.423Z,3.60
2023-05-31T23:45:29.699Z,4.10
2023-05-31T23:47:56.768Z,4.50
2023-05-31T23:50:26.130Z,3.92
2023-05-31T23:52:53.480Z,4.07
2023-05-31T23:55:21.119Z,3.83
2023-05-31T23:57:48.931Z,4.35
